Sieboldt, Kansas
Current Conditions -  °F | °C
As of 8:54 AM on Thursday 23 Oct 2014 (Local Time) from KWLD Reporting Station
Overcast Overcast  
Wind Chill: 62°   Ceiling: 4800
Heat Index: 62°   Visibility: 7mi
Dew Point: 60°   Wind: 7mph
Humidity: 93%   Direction: 180°S
Pressure: 30.12"   Gusts: NA
Location:  37.2192°N, 97.2035°W
Report Text: KWLD 231354Z AUTO 18006KT 7SM OVC048 17/16 A3012 RMK AO2 SLP194 T01670156
Loading
Personal Weather Stations






























Interactive Weather Map
Tropical Storm Tracking
New forecast layout! Learn more

10-Day Weather Forecast

Advertisements
Track Severe Weather on mobile